createdAt,value
2023-05-02T00:02:04.669Z,8.12
2023-05-02T00:04:32.434Z,8.06
2023-05-02T00:07:00.117Z,8.09
2023-05-02T00:09:30.210Z,8.06
2023-05-02T00:11:57.806Z,8.09
2023-05-02T00:14:26.004Z,8.06
2023-05-02T00:16:53.519Z,8.03
2023-05-02T00:19:21.006Z,7.96
2023-05-02T00:21:49.454Z,8.00
2023-05-02T00:24:17.283Z,7.93
2023-05-02T00:26:47.787Z,7.84
2023-05-02T00:29:15.341Z,7.94
2023-05-02T00:31:43.120Z,8.03
2023-05-02T00:34:10.906Z,7.90
2023-05-02T00:36:38.554Z,7.95
2023-05-02T00:39:06.362Z,8.01
2023-05-02T00:41:34.050Z,7.97
2023-05-02T00:44:03.142Z,8.05
2023-05-02T00:46:31.235Z,8.01
2023-05-02T00:48:58.803Z,8.00
2023-05-02T00:51:27.241Z,7.97
2023-05-02T00:53:54.742Z,7.89
2023-05-02T00:56:22.472Z,7.88
2023-05-02T00:58:50.437Z,7.84
2023-05-02T01:01:30.886Z,7.81
2023-05-02T01:04:11.155Z,7.83
2023-05-02T01:06:53.273Z,7.75
2023-05-02T01:09:35.326Z,7.73
2023-05-02T01:12:06.245Z,7.59
2023-05-02T01:14:41.124Z,7.35
2023-05-02T01:17:13.588Z,7.60
2023-05-02T01:19:44.878Z,7.61
2023-05-02T01:22:14.391Z,7.60
2023-05-02T01:24:47.678Z,7.55
2023-05-02T01:27:25.363Z,7.52
2023-05-02T01:29:55.761Z,7.55
2023-05-02T01:32:25.836Z,7.53
2023-05-02T01:34:54.950Z,7.53
2023-05-02T01:37:24.989Z,7.32
2023-05-02T01:39:55.199Z,7.41
2023-05-02T01:42:24.694Z,7.47
2023-05-02T01:44:55.996Z,7.56
2023-05-02T01:47:25.444Z,7.36
2023-05-02T01:49:53.594Z,7.58
2023-05-02T01:52:24.523Z,7.59
2023-05-02T01:54:52.895Z,7.64
2023-05-02T01:57:22.774Z,7.56
2023-05-02T01:59:51.572Z,7.45
2023-05-02T02:02:21.981Z,7.59
2023-05-02T02:04:51.115Z,7.66
2023-05-02T02:07:18.703Z,7.62
2023-05-02T02:09:46.165Z,7.54
2023-05-02T02:12:18.638Z,7.67
2023-05-02T02:14:51.902Z,7.74
2023-05-02T02:17:27.993Z,7.74
2023-05-02T02:19:58.422Z,7.68
2023-05-02T02:22:28.421Z,7.64
2023-05-02T02:24:57.160Z,7.44
2023-05-02T02:27:24.731Z,7.71
2023-05-02T02:29:52.278Z,7.67
2023-05-02T02:32:21.094Z,7.73
2023-05-02T02:34:48.845Z,7.76
2023-05-02T02:37:19.995Z,7.56
2023-05-02T02:39:56.713Z,7.72
2023-05-02T02:42:31.386Z,7.70
2023-05-02T02:45:10.153Z,7.45
2023-05-02T02:47:44.716Z,7.58
2023-05-02T02:50:17.643Z,7.47
2023-05-02T02:52:53.306Z,7.56
2023-05-02T02:55:43.132Z,7.41
2023-05-02T02:58:22.540Z,7.47
2023-05-02T03:00:50.714Z,7.40
2023-05-02T03:03:24.881Z,7.47
2023-05-02T03:05:52.781Z,7.44
2023-05-02T03:08:20.266Z,7.27
2023-05-02T03:10:47.721Z,7.40
2023-05-02T03:13:15.224Z,7.46
2023-05-02T03:16:21.476Z,7.42
2023-05-02T03:18:50.654Z,7.28
2023-05-02T03:21:18.350Z,7.36
2023-05-02T03:23:45.891Z,7.33
2023-05-02T03:26:13.543Z,7.22
2023-05-02T03:28:41.019Z,7.19
2023-05-02T03:31:08.542Z,7.14
2023-05-02T03:33:36.159Z,7.10
2023-05-02T03:36:05.625Z,6.96
2023-05-02T03:38:33.232Z,6.97
2023-05-02T03:41:01.002Z,7.02
2023-05-02T03:43:28.670Z,6.96
2023-05-02T03:45:56.389Z,6.90
2023-05-02T03:48:23.915Z,6.85
2023-05-02T03:50:51.823Z,6.94
2023-05-02T03:53:20.888Z,6.86
2023-05-02T03:55:48.717Z,6.81
2023-05-02T03:58:16.795Z,6.75
2023-05-02T04:00:44.277Z,6.90
2023-05-02T04:03:11.807Z,6.96
2023-05-02T04:05:39.421Z,6.99
2023-05-02T04:08:07.151Z,6.97
2023-05-02T04:10:35.979Z,6.98
2023-05-02T04:13:04.429Z,7.01
2023-05-02T04:15:32.324Z,7.06
2023-05-02T04:18:00.014Z,6.88
2023-05-02T04:20:27.880Z,7.00
2023-05-02T04:22:55.412Z,7.03
2023-05-02T04:25:22.948Z,7.07
2023-05-02T04:27:51.731Z,7.09
2023-05-02T04:30:19.212Z,7.05
2023-05-02T04:32:46.696Z,7.08
2023-05-02T04:35:15.274Z,7.06
2023-05-02T04:37:42.811Z,7.13
2023-05-02T04:40:11.370Z,7.06
2023-05-02T04:42:38.781Z,6.96
2023-05-02T04:45:09.036Z,7.06
2023-05-02T04:47:36.559Z,7.08
2023-05-02T04:50:04.369Z,7.15
2023-05-02T04:52:32.204Z,7.10
2023-05-02T04:54:59.974Z,7.18
2023-05-02T04:57:27.411Z,7.07
2023-05-02T04:59:55.048Z,7.21
2023-05-02T05:02:25.666Z,7.14
2023-05-02T05:04:53.399Z,7.17
2023-05-02T05:07:21.148Z,7.15
2023-05-02T05:09:49.384Z,7.19
2023-05-02T05:12:17.645Z,7.25
2023-05-02T05:14:45.306Z,7.24
2023-05-02T05:17:12.757Z,7.17
2023-05-02T05:19:41.519Z,7.17
2023-05-02T05:22:09.790Z,7.18
2023-05-02T05:24:37.410Z,7.13
2023-05-02T05:27:05.316Z,7.10
2023-05-02T05:29:33.499Z,7.09
2023-05-02T05:32:00.956Z,7.03
2023-05-02T05:34:28.455Z,6.87
2023-05-02T05:36:57.676Z,7.10
2023-05-02T05:39:25.418Z,7.03
2023-05-02T05:41:52.848Z,7.11
2023-05-02T05:44:21.967Z,7.17
2023-05-02T05:46:49.488Z,7.16
2023-05-02T05:49:17.607Z,7.01
2023-05-02T05:51:45.177Z,6.99
2023-05-02T05:54:14.040Z,7.17
2023-05-02T05:56:41.493Z,7.13
2023-05-02T05:59:08.979Z,7.14
2023-05-02T06:01:36.535Z,6.93
2023-05-02T06:04:05.008Z,7.10
2023-05-02T06:06:32.727Z,7.24
2023-05-02T06:09:00.365Z,7.22
2023-05-02T06:11:29.216Z,7.25
2023-05-02T06:13:56.782Z,7.37
2023-05-02T06:16:24.271Z,7.36
2023-05-02T06:18:53.698Z,7.24
2023-05-02T06:21:21.197Z,7.39
2023-05-02T06:23:48.749Z,7.38
2023-05-02T06:26:16.429Z,7.38
2023-05-02T06:28:45.252Z,7.40
2023-05-02T06:31:12.813Z,7.47
2023-05-02T06:33:40.298Z,7.47
2023-05-02T06:36:08.105Z,7.53
2023-05-02T06:38:35.515Z,7.64
2023-05-02T06:41:02.935Z,7.58
2023-05-02T06:43:30.426Z,7.58
2023-05-02T06:45:59.308Z,7.57
2023-05-02T06:48:26.724Z,7.51
2023-05-02T06:50:54.343Z,7.48
2023-05-02T06:53:21.905Z,7.51
2023-05-02T06:55:49.832Z,7.46
2023-05-02T06:58:17.266Z,7.43
2023-05-02T07:00:44.764Z,7.21
2023-05-02T07:03:13.637Z,7.07
2023-05-02T07:05:41.350Z,6.95
2023-05-02T07:08:09.025Z,6.95
2023-05-02T07:10:36.562Z,6.85
2023-05-02T07:13:04.020Z,6.87
2023-05-02T07:15:31.556Z,6.85
2023-05-02T07:17:59.117Z,6.89
2023-05-02T07:20:27.903Z,6.86
2023-05-02T07:22:55.382Z,6.91
2023-05-02T07:25:22.796Z,6.92
2023-05-02T07:27:50.217Z,6.81
2023-05-02T07:30:17.675Z,6.89
2023-05-02T07:32:45.956Z,7.00
2023-05-02T07:35:13.445Z,7.00
2023-05-02T07:37:42.247Z,6.96
2023-05-02T07:40:10.704Z,7.09
2023-05-02T07:42:38.435Z,7.09
2023-05-02T07:45:07.019Z,7.17
2023-05-02T07:47:34.576Z,7.24
2023-05-02T07:50:04.005Z,7.19
2023-05-02T07:52:31.602Z,7.23
2023-05-02T07:55:00.403Z,7.30
2023-05-02T07:57:27.931Z,7.38
2023-05-02T07:59:57.060Z,7.33
2023-05-02T08:02:26.051Z,7.34
2023-05-02T08:04:54.019Z,7.36
2023-05-02T08:07:21.650Z,7.41
2023-05-02T08:09:49.302Z,7.51
2023-05-02T08:12:18.117Z,7.40
2023-05-02T08:14:45.572Z,7.36
2023-05-02T08:17:13.371Z,7.47
2023-05-02T08:19:40.985Z,7.48
2023-05-02T08:22:08.473Z,7.62
2023-05-02T08:24:35.911Z,7.59
2023-05-02T08:27:03.823Z,7.68
2023-05-02T08:29:32.605Z,7.74
2023-05-02T08:32:00.183Z,7.66
2023-05-02T08:34:27.712Z,7.85
2023-05-02T08:36:58.084Z,7.76
2023-05-02T08:39:25.879Z,7.81
2023-05-02T08:41:53.502Z,7.83
2023-05-02T08:44:21.635Z,7.94
2023-05-02T08:46:51.929Z,7.79
2023-05-02T08:49:20.476Z,7.95
2023-05-02T08:51:51.531Z,8.08
2023-05-02T08:54:21.087Z,8.15
2023-05-02T08:56:49.030Z,8.23
2023-05-02T08:59:16.523Z,8.15
2023-05-02T09:01:47.468Z,8.19
2023-05-02T09:04:16.358Z,8.22
2023-05-02T09:06:43.878Z,8.27
2023-05-02T09:09:11.489Z,8.25
2023-05-02T09:11:39.411Z,8.19
2023-05-02T09:14:15.511Z,8.08
2023-05-02T09:16:42.996Z,8.16
2023-05-02T09:19:11.412Z,8.12
2023-05-02T09:21:41.566Z,7.89
2023-05-02T09:24:19.127Z,8.12
2023-05-02T09:26:58.586Z,8.18
2023-05-02T09:29:26.072Z,8.13
2023-05-02T09:31:55.995Z,8.11
2023-05-02T09:34:24.515Z,8.13
2023-05-02T09:36:54.384Z,8.22
2023-05-02T09:39:25.493Z,8.31
2023-05-02T09:41:54.431Z,8.41
2023-05-02T09:44:24.337Z,8.44
2023-05-02T09:46:53.171Z,8.01
2023-05-02T09:49:39.377Z,8.14
2023-05-02T09:52:12.956Z,8.37
2023-05-02T09:54:40.664Z,8.34
2023-05-02T09:57:08.121Z,8.48
2023-05-02T09:59:35.628Z,8.64
2023-05-02T10:02:06.977Z,8.37
2023-05-02T10:04:35.408Z,8.62
2023-05-02T10:07:06.382Z,8.37
2023-05-02T10:09:36.935Z,8.30
2023-05-02T10:12:06.794Z,8.41
2023-05-02T10:14:41.141Z,8.35
2023-05-02T10:17:17.102Z,8.35
2023-05-02T10:19:54.901Z,8.11
2023-05-02T10:22:23.620Z,8.29
2023-05-02T10:24:54.124Z,8.14
2023-05-02T10:27:22.265Z,8.24
2023-05-02T10:29:52.262Z,8.57
2023-05-02T10:32:20.003Z,8.78
2023-05-02T10:34:48.490Z,8.73
2023-05-02T10:37:17.040Z,8.61
2023-05-02T10:39:44.642Z,8.72
2023-05-02T10:42:15.494Z,8.62
2023-05-02T10:44:42.962Z,8.65
2023-05-02T10:47:20.079Z,8.79
2023-05-02T10:49:52.175Z,8.89
2023-05-02T10:52:31.513Z,8.62
2023-05-02T10:55:15.658Z,8.58
2023-05-02T10:58:20.856Z,8.68
2023-05-02T11:00:49.810Z,8.58
2023-05-02T11:03:57.330Z,8.62
2023-05-02T11:06:25.128Z,8.83
2023-05-02T11:08:52.978Z,9.10
2023-05-02T11:11:48.070Z,9.33
2023-05-02T11:14:43.364Z,9.54
2023-05-02T11:17:15.260Z,9.66
2023-05-02T11:20:27.816Z,9.86
2023-05-02T11:22:57.937Z,10.11
2023-05-02T11:25:33.493Z,10.03
2023-05-02T11:28:01.311Z,10.25
2023-05-02T11:30:43.691Z,9.80
2023-05-02T11:33:17.775Z,9.63
2023-05-02T11:35:47.031Z,9.40
2023-05-02T11:38:16.733Z,8.83
2023-05-02T11:40:55.866Z,8.84
2023-05-02T11:43:25.105Z,8.85
2023-05-02T11:45:53.670Z,8.99
2023-05-02T11:48:26.952Z,9.04
2023-05-02T11:50:56.520Z,9.62
2023-05-02T11:53:25.592Z,9.82
2023-05-02T11:55:54.440Z,9.50
2023-05-02T11:58:23.337Z,9.31
2023-05-02T12:00:53.904Z,9.54
2023-05-02T12:03:30.241Z,9.67
2023-05-02T12:05:59.766Z,9.77
2023-05-02T12:08:29.869Z,9.77
2023-05-02T12:10:58.015Z,9.55
2023-05-02T12:13:27.494Z,9.18
2023-05-02T12:15:56.234Z,9.01
2023-05-02T12:18:27.044Z,8.74
2023-05-02T12:20:56.544Z,8.46
2023-05-02T12:23:27.352Z,8.32
2023-05-02T12:25:55.193Z,8.54
2023-05-02T12:28:24.093Z,8.79
2023-05-02T12:30:52.777Z,8.80
2023-05-02T12:33:20.777Z,8.93
2023-05-02T12:35:51.058Z,9.03
2023-05-02T12:38:21.064Z,9.45
2023-05-02T12:40:50.730Z,9.24
2023-05-02T12:43:18.853Z,9.55
2023-05-02T12:45:48.490Z,9.46
2023-05-02T12:48:20.933Z,9.59
2023-05-02T12:50:50.124Z,9.89
2023-05-02T12:53:17.765Z,9.32
2023-05-02T12:55:46.861Z,9.38
2023-05-02T12:58:14.724Z,9.50
2023-05-02T13:00:45.737Z,9.51
2023-05-02T13:03:15.537Z,9.76
2023-05-02T13:05:43.324Z,9.64
2023-05-02T13:08:12.249Z,9.82
2023-05-02T13:10:40.540Z,9.79
2023-05-02T13:13:08.441Z,9.90
2023-05-02T13:15:36.174Z,9.95
2023-05-02T13:18:03.848Z,9.90
2023-05-02T13:20:31.392Z,9.80
2023-05-02T13:22:58.898Z,9.91
2023-05-02T13:25:28.013Z,9.77
2023-05-02T13:27:55.549Z,9.99
2023-05-02T13:30:22.997Z,10.02
2023-05-02T13:32:50.555Z,10.01
2023-05-02T13:35:18.038Z,10.17
2023-05-02T13:37:45.476Z,10.17
2023-05-02T13:40:14.053Z,10.47
2023-05-02T13:42:42.886Z,10.89
2023-05-02T13:45:11.193Z,10.28
2023-05-02T13:47:39.465Z,10.47
2023-05-02T13:50:09.163Z,10.71
2023-05-02T13:52:36.556Z,10.22
2023-05-02T13:55:04.781Z,10.12
2023-05-02T13:57:32.304Z,9.96
2023-05-02T14:00:01.333Z,9.78
2023-05-02T14:02:29.142Z,9.80
2023-05-02T14:04:56.797Z,9.92
2023-05-02T14:07:24.451Z,9.87
2023-05-02T14:09:51.916Z,9.84
2023-05-02T14:12:19.389Z,10.05
2023-05-02T14:14:46.847Z,9.77
2023-05-02T14:17:15.842Z,10.02
2023-05-02T14:19:43.432Z,10.33
2023-05-02T14:22:10.942Z,9.94
2023-05-02T14:24:38.379Z,9.67
2023-05-02T14:27:07.578Z,9.83
2023-05-02T14:29:35.034Z,9.54
2023-05-02T14:32:02.630Z,9.58
2023-05-02T14:34:31.548Z,9.56
2023-05-02T14:36:58.971Z,9.96
2023-05-02T14:39:27.465Z,9.95
2023-05-02T14:41:55.012Z,10.07
2023-05-02T14:44:22.571Z,10.31
2023-05-02T14:46:51.271Z,10.15
2023-05-02T14:49:18.959Z,10.21
2023-05-02T14:51:48.774Z,10.90
2023-05-02T14:54:16.736Z,11.61
2023-05-02T14:56:44.503Z,11.37
2023-05-02T14:59:12.267Z,11.67
2023-05-02T15:01:39.891Z,11.97
2023-05-02T15:04:08.293Z,11.24
2023-05-02T15:06:37.061Z,10.90
2023-05-02T15:09:06.259Z,10.63
2023-05-02T15:11:33.725Z,10.28
2023-05-02T15:14:01.210Z,10.03
2023-05-02T15:16:28.700Z,10.03
2023-05-02T15:18:56.224Z,10.51
2023-05-02T15:21:23.816Z,10.47
2023-05-02T15:23:51.332Z,10.88
2023-05-02T15:26:20.332Z,11.08
2023-05-02T15:28:47.801Z,11.56
2023-05-02T15:31:15.289Z,11.49
2023-05-02T15:33:42.833Z,11.69
2023-05-02T15:36:11.126Z,11.16
2023-05-02T15:38:39.476Z,10.34
2023-05-02T15:41:07.937Z,10.26
2023-05-02T15:43:37.178Z,10.45
2023-05-02T15:46:05.066Z,10.26
2023-05-02T15:48:34.653Z,10.10
2023-05-02T15:51:02.295Z,10.80
2023-05-02T15:53:30.237Z,10.39
2023-05-02T15:55:58.064Z,10.59
2023-05-02T15:58:25.532Z,10.73
2023-05-02T16:00:55.740Z,10.73
2023-05-02T16:03:23.244Z,10.94
2023-05-02T16:05:53.665Z,10.92
2023-05-02T16:08:21.233Z,11.40
2023-05-02T16:10:48.678Z,11.36
2023-05-02T16:13:16.158Z,11.18
2023-05-02T16:15:43.722Z,10.33
2023-05-02T16:18:12.616Z,10.18
2023-05-02T16:20:40.151Z,10.28
2023-05-02T16:23:07.945Z,10.41
2023-05-02T16:25:35.816Z,10.01
2023-05-02T16:28:03.410Z,10.35
2023-05-02T16:30:30.869Z,10.49
2023-05-02T16:32:58.405Z,10.58
2023-05-02T16:35:27.272Z,10.41
2023-05-02T16:37:54.703Z,11.24
2023-05-02T16:40:22.307Z,10.98
2023-05-02T16:42:49.871Z,10.77
2023-05-02T16:45:20.820Z,10.78
2023-05-02T16:47:48.319Z,11.34
2023-05-02T16:50:15.922Z,10.72
2023-05-02T16:52:44.915Z,10.98
2023-05-02T16:55:12.564Z,11.01
2023-05-02T16:57:39.984Z,10.10
2023-05-02T17:00:10.347Z,10.16
2023-05-02T17:02:38.194Z,10.07
2023-05-02T17:05:06.597Z,9.89
2023-05-02T17:07:34.179Z,9.79
2023-05-02T17:10:04.230Z,9.97
2023-05-02T17:12:31.855Z,10.02
2023-05-02T17:15:00.601Z,9.62
2023-05-02T17:17:28.958Z,9.94
2023-05-02T17:19:56.364Z,9.96
2023-05-02T17:22:23.983Z,9.58
2023-05-02T17:24:53.971Z,9.98
2023-05-02T17:27:22.899Z,10.25
2023-05-02T17:29:50.721Z,9.69
2023-05-02T17:32:18.298Z,9.64
2023-05-02T17:34:45.774Z,9.28
2023-05-02T17:37:13.393Z,8.79
2023-05-02T17:39:40.839Z,8.67
2023-05-02T17:42:08.372Z,8.39
2023-05-02T17:44:37.337Z,8.65
2023-05-02T17:47:05.755Z,8.91
2023-05-02T17:49:35.464Z,8.92
2023-05-02T17:52:03.603Z,8.96
2023-05-02T17:54:31.264Z,8.79
2023-05-02T17:56:58.959Z,8.46
2023-05-02T17:59:27.214Z,8.21
2023-05-02T18:01:56.333Z,8.12
2023-05-02T18:04:25.385Z,8.15
2023-05-02T18:06:52.986Z,7.90
2023-05-02T18:09:20.726Z,7.97
2023-05-02T18:11:48.324Z,8.06
2023-05-02T18:14:15.884Z,7.92
2023-05-02T18:16:48.410Z,7.77
2023-05-02T18:19:17.461Z,7.84
2023-05-02T18:21:45.160Z,7.59
2023-05-02T18:24:12.876Z,7.73
2023-05-02T18:26:40.475Z,7.51
2023-05-02T18:29:09.224Z,7.49
2023-05-02T18:31:39.872Z,7.37
2023-05-02T18:34:07.494Z,7.28
2023-05-02T18:36:36.430Z,7.18
2023-05-02T18:39:03.996Z,7.19
2023-05-02T18:41:31.570Z,7.15
2023-05-02T18:44:00.745Z,7.10
2023-05-02T18:46:28.449Z,6.93
2023-05-02T18:48:56.547Z,6.82
2023-05-02T18:51:24.258Z,6.75
2023-05-02T18:53:53.130Z,6.77
2023-05-02T18:56:21.328Z,6.57
2023-05-02T18:58:48.977Z,6.50
2023-05-02T19:01:18.221Z,6.50
2023-05-02T19:03:45.895Z,6.41
2023-05-02T19:06:17.611Z,6.31
2023-05-02T19:08:46.391Z,6.43
2023-05-02T19:11:15.809Z,6.18
2023-05-02T19:13:43.491Z,6.10
2023-05-02T19:16:14.230Z,6.28
2023-05-02T19:18:43.284Z,6.22
2023-05-02T19:21:13.480Z,6.21
2023-05-02T19:23:41.856Z,6.13
2023-05-02T19:26:13.209Z,5.88
2023-05-02T19:28:43.054Z,5.91
2023-05-02T19:31:11.967Z,5.67
2023-05-02T19:33:40.265Z,5.67
2023-05-02T19:36:08.588Z,5.73
2023-05-02T19:38:36.227Z,5.61
2023-05-02T19:41:04.003Z,5.80
2023-05-02T19:43:31.716Z,5.54
2023-05-02T19:46:00.859Z,5.63
2023-05-02T19:48:28.884Z,5.48
2023-05-02T19:50:56.819Z,5.50
2023-05-02T19:53:24.515Z,5.14
2023-05-02T19:55:53.355Z,5.16
2023-05-02T19:58:22.989Z,5.10
2023-05-02T20:00:51.726Z,5.11
2023-05-02T20:03:21.608Z,4.98
2023-05-02T20:05:50.872Z,4.93
2023-05-02T20:08:19.355Z,5.06
2023-05-02T20:10:47.666Z,4.96
2023-05-02T20:13:15.591Z,4.78
2023-05-02T20:15:43.446Z,4.74
2023-05-02T20:18:11.100Z,4.47
2023-05-02T20:20:40.070Z,4.67
2023-05-02T20:23:07.730Z,4.69
2023-05-02T20:25:35.448Z,4.64
2023-05-02T20:28:03.353Z,4.73
2023-05-02T20:30:31.241Z,4.67
2023-05-02T20:33:10.666Z,4.56
2023-05-02T20:35:44.883Z,4.27
2023-05-02T20:38:12.816Z,3.98
2023-05-02T20:40:42.408Z,3.86
2023-05-02T20:43:09.962Z,3.76
2023-05-02T20:45:38.717Z,3.65
2023-05-02T20:48:06.846Z,3.59
2023-05-02T20:50:34.413Z,3.49
2023-05-02T20:53:04.482Z,3.36
2023-05-02T20:55:32.058Z,3.18
2023-05-02T20:57:59.544Z,3.27
2023-05-02T21:00:27.598Z,3.26
2023-05-02T21:02:55.169Z,3.27
2023-05-02T21:05:22.694Z,3.30
2023-05-02T21:07:50.264Z,3.22
2023-05-02T21:10:19.273Z,3.29
2023-05-02T21:12:46.782Z,3.33
2023-05-02T21:15:14.904Z,3.28
2023-05-02T21:17:42.499Z,3.26
2023-05-02T21:20:11.012Z,3.10
2023-05-02T21:22:38.563Z,2.84
2023-05-02T21:25:06.945Z,2.53
2023-05-02T21:27:35.842Z,2.53
2023-05-02T21:30:03.760Z,2.48
2023-05-02T21:32:31.700Z,2.52
2023-05-02T21:34:59.323Z,2.47
2023-05-02T21:37:26.983Z,2.44
2023-05-02T21:39:54.494Z,2.43
2023-05-02T21:42:22.050Z,2.18
2023-05-02T21:44:51.279Z,2.38
2023-05-02T21:47:18.925Z,2.21
2023-05-02T21:49:46.433Z,2.24
2023-05-02T21:52:13.978Z,2.28
2023-05-02T21:54:42.612Z,2.27
2023-05-02T21:57:10.188Z,2.28
2023-05-02T21:59:38.965Z,2.18
2023-05-02T22:02:07.939Z,2.30
2023-05-02T22:04:35.550Z,2.32
2023-05-02T22:07:03.157Z,2.18
2023-05-02T22:09:33.426Z,2.13
2023-05-02T22:12:01.216Z,2.00
2023-05-02T22:14:37.708Z,1.92
2023-05-02T22:17:12.927Z,1.95
2023-05-02T22:19:41.285Z,2.02
2023-05-02T22:22:08.935Z,2.09
2023-05-02T22:24:36.419Z,2.27
2023-05-02T22:27:03.969Z,2.45
2023-05-02T22:29:31.573Z,2.46
2023-05-02T22:31:59.243Z,2.43
2023-05-02T22:34:28.268Z,2.47
2023-05-02T22:36:55.751Z,2.33
2023-05-02T22:39:23.312Z,2.32
2023-05-02T22:41:50.884Z,1.98
2023-05-02T22:44:18.461Z,1.80
2023-05-02T22:46:46.181Z,1.65
2023-05-02T22:49:13.672Z,1.50
2023-05-02T22:51:42.785Z,1.49
2023-05-02T22:54:10.435Z,1.54
2023-05-02T22:56:38.109Z,1.51
2023-05-02T22:59:05.775Z,1.42
2023-05-02T23:01:33.483Z,1.26
2023-05-02T23:04:01.186Z,1.43
2023-05-02T23:06:29.055Z,1.22
2023-05-02T23:08:58.003Z,1.22
2023-05-02T23:11:25.831Z,1.17
2023-05-02T23:13:55.530Z,1.15
2023-05-02T23:16:23.959Z,1.18
2023-05-02T23:18:51.651Z,1.21
2023-05-02T23:21:19.117Z,1.11
2023-05-02T23:23:46.610Z,1.11
2023-05-02T23:26:15.632Z,1.06
2023-05-02T23:28:43.123Z,1.14
2023-05-02T23:31:10.897Z,0.85
2023-05-02T23:33:38.834Z,0.98
2023-05-02T23:36:07.709Z,0.76
2023-05-02T23:38:35.958Z,0.77
2023-05-02T23:41:03.453Z,0.73
2023-05-02T23:43:32.437Z,0.58
2023-05-02T23:45:59.858Z,0.64
2023-05-02T23:48:27.487Z,0.45
2023-05-02T23:50:54.971Z,0.33
2023-05-02T23:53:22.450Z,0.48
2023-05-02T23:55:50.010Z,0.44
2023-05-02T23:58:17.546Z,0.36
